createdAt,value
2022-09-15T00:02:25.166Z,100053.13
2022-09-15T00:04:51.765Z,100053.59
2022-09-15T00:07:18.449Z,100058.41
2022-09-15T00:09:44.928Z,100050.25
2022-09-15T00:12:11.453Z,100063.78
2022-09-15T00:14:37.905Z,100054.66
2022-09-15T00:17:04.607Z,100055.81
2022-09-15T00:19:31.117Z,100058.22
2022-09-15T00:21:57.669Z,100049.84
2022-09-15T00:24:24.155Z,100055.13
2022-09-15T00:26:50.664Z,100061.91
2022-09-15T00:29:17.143Z,100059.72
2022-09-15T00:31:43.626Z,100075.03
2022-09-15T00:34:12.789Z,100062.94
2022-09-15T00:36:39.398Z,100072.16
2022-09-15T00:39:05.902Z,100071.94
2022-09-15T00:41:32.413Z,100072.41
2022-09-15T00:44:05.450Z,100069.09
2022-09-15T00:46:42.361Z,100075.22
2022-09-15T00:49:11.534Z,100075.47
2022-09-15T00:51:51.680Z,100061.72
2022-09-15T00:54:25.137Z,100066.44
2022-09-15T00:56:54.999Z,100063.81
2022-09-15T00:59:26.354Z,100066.25
2022-09-15T01:02:01.092Z,100070.97
2022-09-15T01:04:27.695Z,100070.16
2022-09-15T01:06:59.588Z,100080.59
2022-09-15T01:09:51.158Z,100075.47
2022-09-15T01:12:18.464Z,100079.94
2022-09-15T01:14:44.884Z,100082.56
2022-09-15T01:17:40.414Z,100082.63
2022-09-15T01:20:06.814Z,100084.00
2022-09-15T01:22:39.515Z,100082.81
2022-09-15T01:25:43.579Z,100078.94
2022-09-15T01:28:43.633Z,100074.63
2022-09-15T01:31:19.382Z,100075.63
2022-09-15T01:34:16.805Z,100077.63
2022-09-15T01:36:54.746Z,100083.22
2022-09-15T01:39:28.682Z,100086.09
2022-09-15T01:42:05.536Z,100080.50
2022-09-15T01:44:40.260Z,100085.44
2022-09-15T01:47:10.233Z,100086.28
2022-09-15T01:49:44.690Z,100088.50
2022-09-15T01:52:11.475Z,100082.78
2022-09-15T01:54:45.975Z,100083.44
2022-09-15T01:57:12.935Z,100092.47
2022-09-15T01:59:39.362Z,100087.97
2022-09-15T02:02:16.691Z,100089.41
2022-09-15T02:04:55.349Z,100091.66
2022-09-15T02:07:57.005Z,100084.88
2022-09-15T02:10:34.565Z,100082.22
2022-09-15T02:13:18.102Z,100082.44
2022-09-15T02:15:48.432Z,100075.66
2022-09-15T02:18:32.819Z,100074.03
2022-09-15T02:21:09.240Z,100079.72
2022-09-15T02:23:40.959Z,100077.09
2022-09-15T02:26:14.067Z,100076.72
2022-09-15T02:28:42.987Z,100081.56
2022-09-15T02:31:14.140Z,100078.94
2022-09-15T02:33:45.535Z,100083.25
2022-09-15T02:36:16.559Z,100073.78
2022-09-15T02:38:49.218Z,100067.19
2022-09-15T02:41:15.871Z,100062.50
2022-09-15T02:43:49.562Z,100065.75
2022-09-15T02:46:18.817Z,100077.28
2022-09-15T02:48:45.528Z,100066.59
2022-09-15T02:51:12.234Z,100074.78
2022-09-15T02:53:38.918Z,100069.28
2022-09-15T02:56:06.589Z,100075.78
2022-09-15T02:58:36.415Z,100070.91
2022-09-15T03:01:04.514Z,100065.53
2022-09-15T03:03:32.545Z,100063.91
2022-09-15T03:06:16.319Z,100070.44
2022-09-15T03:08:52.023Z,100067.75
2022-09-15T03:11:20.346Z,100071.25
2022-09-15T03:13:47.552Z,100085.78
2022-09-15T03:16:15.806Z,100083.28
2022-09-15T03:18:42.589Z,100078.84
2022-09-15T03:21:11.579Z,100080.06
2022-09-15T03:23:38.276Z,100085.59
2022-09-15T03:26:06.210Z,100089.44
2022-09-15T03:28:32.767Z,100092.78
2022-09-15T03:30:59.482Z,100091.06
2022-09-15T03:33:26.146Z,100094.25
2022-09-15T03:35:53.301Z,100089.31
2022-09-15T03:38:23.152Z,100089.97
2022-09-15T03:41:10.578Z,100086.91
2022-09-15T03:43:37.779Z,100093.03
2022-09-15T03:46:06.911Z,100097.69
2022-09-15T03:48:35.480Z,100087.63
2022-09-15T03:51:03.168Z,100090.47
2022-09-15T03:53:32.003Z,100090.66
2022-09-15T03:56:27.284Z,100085.91
2022-09-15T03:58:54.317Z,100086.72
2022-09-15T04:01:21.441Z,100082.19
2022-09-15T04:03:51.231Z,100080.97
2022-09-15T04:06:20.234Z,100074.16
2022-09-15T04:08:47.652Z,100076.63
2022-09-15T04:11:14.470Z,100079.28
2022-09-15T04:13:42.044Z,100083.50
2022-09-15T04:16:11.549Z,100083.53
2022-09-15T04:18:38.449Z,100092.50
2022-09-15T04:21:08.856Z,100083.88
2022-09-15T04:23:35.402Z,100089.84
2022-09-15T04:26:05.468Z,100092.56
2022-09-15T04:28:34.827Z,100090.69
2022-09-15T04:31:07.761Z,100082.09
2022-09-15T04:33:35.071Z,100090.28
2022-09-15T04:36:04.519Z,100092.34
2022-09-15T04:38:31.711Z,100087.66
2022-09-15T04:40:58.880Z,100090.16
2022-09-15T04:43:26.154Z,100086.44
2022-09-15T04:45:53.944Z,100090.56
2022-09-15T04:48:21.235Z,100091.50
2022-09-15T04:50:47.769Z,100086.19
2022-09-15T04:53:15.018Z,100099.50
2022-09-15T04:55:41.817Z,100094.41
2022-09-15T04:58:08.901Z,100093.38
2022-09-15T05:00:45.773Z,100088.41
2022-09-15T05:03:14.040Z,100093.38
2022-09-15T05:05:41.349Z,100096.81
2022-09-15T05:08:08.228Z,100092.50
2022-09-15T05:10:35.167Z,100099.06
2022-09-15T05:13:01.632Z,100099.13
2022-09-15T05:15:28.113Z,100096.09
2022-09-15T05:17:54.668Z,100091.25
2022-09-15T05:20:21.152Z,100085.59
2022-09-15T05:22:47.591Z,100089.69
2022-09-15T05:25:14.163Z,100110.38
2022-09-15T05:27:40.631Z,100104.66
2022-09-15T05:30:35.209Z,100113.72
2022-09-15T05:32:54.159Z,100115.00
2022-09-15T05:35:20.620Z,100108.00
2022-09-15T05:37:47.099Z,100108.00
2022-09-15T05:40:13.674Z,100109.25
2022-09-15T05:42:40.401Z,100105.81
2022-09-15T05:45:07.580Z,100115.88
2022-09-15T05:47:34.250Z,100124.88
2022-09-15T05:50:00.719Z,100125.84
2022-09-15T05:52:27.169Z,100125.44
2022-09-15T05:54:58.869Z,100116.59
2022-09-15T05:57:25.734Z,100125.81
2022-09-15T05:59:52.416Z,100124.00
2022-09-15T06:02:19.113Z,100125.44
2022-09-15T06:04:46.218Z,100130.88
2022-09-15T06:07:13.181Z,100137.78
2022-09-15T06:09:39.737Z,100139.28
2022-09-15T06:12:06.424Z,100127.81
2022-09-15T06:14:32.936Z,100132.31
2022-09-15T06:16:59.422Z,100141.03
2022-09-15T06:19:25.891Z,100146.69
2022-09-15T06:21:52.995Z,100143.78
2022-09-15T06:24:19.627Z,100140.75
2022-09-15T06:26:46.086Z,100144.03
2022-09-15T06:29:12.899Z,100139.75
2022-09-15T06:31:39.574Z,100142.00
2022-09-15T06:34:06.697Z,100152.94
2022-09-15T06:36:33.637Z,100152.66
2022-09-15T06:39:00.163Z,100154.78
2022-09-15T06:41:38.184Z,100160.13
2022-09-15T06:44:09.745Z,100157.38
2022-09-15T06:46:36.433Z,100159.25
2022-09-15T06:49:03.004Z,100169.09
2022-09-15T06:51:35.224Z,100170.75
2022-09-15T06:54:03.017Z,100170.16
2022-09-15T06:56:30.428Z,100166.94
2022-09-15T06:59:00.138Z,100169.91
2022-09-15T07:01:28.964Z,100174.88
2022-09-15T07:03:57.092Z,100173.94
2022-09-15T07:06:24.689Z,100180.88
2022-09-15T07:08:51.421Z,100181.91
2022-09-15T07:11:18.475Z,100178.28
2022-09-15T07:13:45.350Z,100185.50
2022-09-15T07:16:13.035Z,100192.09
2022-09-15T07:18:43.211Z,100190.22
2022-09-15T07:21:19.886Z,100197.22
2022-09-15T07:23:47.632Z,100190.19
2022-09-15T07:26:25.829Z,100200.47
2022-09-15T07:28:56.418Z,100204.78
2022-09-15T07:31:25.276Z,100208.91
2022-09-15T07:33:52.686Z,100206.88
2022-09-15T07:36:19.878Z,100207.50
2022-09-15T07:38:48.562Z,100201.78
2022-09-15T07:41:18.774Z,100204.41
2022-09-15T07:43:49.727Z,100203.38
2022-09-15T07:46:17.639Z,100198.88
2022-09-15T07:48:45.829Z,100205.22
2022-09-15T07:51:12.926Z,100207.09
2022-09-15T07:53:39.432Z,100207.69
2022-09-15T07:56:06.358Z,100212.84
2022-09-15T07:58:33.730Z,100208.34
2022-09-15T08:01:11.063Z,100208.78
2022-09-15T08:03:42.914Z,100215.13
2022-09-15T08:06:10.639Z,100208.78
2022-09-15T08:08:41.252Z,100219.66
2022-09-15T08:11:09.573Z,100218.41
2022-09-15T08:13:36.676Z,100226.84
2022-09-15T08:16:15.222Z,100227.38
2022-09-15T08:18:43.245Z,100233.63
2022-09-15T08:21:13.579Z,100241.50
2022-09-15T08:23:40.395Z,100236.59
2022-09-15T08:26:14.112Z,100226.78
2022-09-15T08:28:41.681Z,100228.44
2022-09-15T08:31:10.913Z,100235.44
2022-09-15T08:33:39.825Z,100226.16
2022-09-15T08:36:13.511Z,100226.72
2022-09-15T08:38:41.509Z,100234.59
2022-09-15T08:41:14.084Z,100253.88
2022-09-15T08:44:10.189Z,100259.88
2022-09-15T08:46:47.621Z,100256.16
2022-09-15T08:49:50.502Z,100260.81
2022-09-15T08:52:23.728Z,100263.97
2022-09-15T08:54:56.411Z,100268.31
2022-09-15T08:57:25.799Z,100270.19
2022-09-15T08:59:54.494Z,100271.00
2022-09-15T09:02:27.205Z,100270.59
2022-09-15T09:05:10.803Z,100273.66
2022-09-15T09:07:52.853Z,100276.63
2022-09-15T09:10:25.281Z,100279.16
2022-09-15T09:13:20.285Z,100279.72
2022-09-15T09:16:22.896Z,100288.97
2022-09-15T09:18:58.743Z,100292.28
2022-09-15T09:21:31.147Z,100298.53
2022-09-15T09:24:05.306Z,100281.63
2022-09-15T09:26:35.923Z,100287.91
2022-09-15T09:29:10.901Z,100296.16
2022-09-15T09:31:37.922Z,100293.91
2022-09-15T09:34:13.628Z,100288.44
2022-09-15T09:36:40.279Z,100290.91
2022-09-15T09:39:13.762Z,100301.22
2022-09-15T09:41:42.099Z,100298.41
2022-09-15T09:44:14.942Z,100295.28
2022-09-15T09:46:42.387Z,100295.53
2022-09-15T09:49:20.975Z,100304.09
2022-09-15T09:52:00.136Z,100294.16
2022-09-15T09:54:29.319Z,100296.59
2022-09-15T09:57:17.050Z,100294.13
2022-09-15T09:59:46.337Z,100301.19
2022-09-15T10:02:21.896Z,100295.88
2022-09-15T10:04:51.936Z,100298.91
2022-09-15T10:07:22.167Z,100295.53
2022-09-15T10:09:57.879Z,100298.81
2022-09-15T10:12:40.546Z,100299.22
2022-09-15T10:15:20.679Z,100303.09
2022-09-15T10:17:49.568Z,100299.50
2022-09-15T10:20:54.610Z,100299.13
2022-09-15T10:23:21.718Z,100301.19
2022-09-15T10:25:58.980Z,100289.00
2022-09-15T10:28:27.709Z,100294.41
2022-09-15T10:31:00.373Z,100293.56
2022-09-15T10:33:38.499Z,100288.91
2022-09-15T10:36:13.990Z,100288.28
2022-09-15T10:39:10.922Z,100293.59
2022-09-15T10:41:59.166Z,100289.22
2022-09-15T10:44:25.664Z,100281.69
2022-09-15T10:47:26.158Z,100289.81
2022-09-15T10:50:10.658Z,100282.06
2022-09-15T10:53:13.120Z,100286.22
2022-09-15T10:56:00.331Z,100283.97
2022-09-15T10:58:51.144Z,100282.44
2022-09-15T11:01:29.866Z,100276.25
2022-09-15T11:04:02.943Z,100269.69
2022-09-15T11:07:00.431Z,100274.00
2022-09-15T11:09:51.055Z,100285.69
2022-09-15T11:12:33.193Z,100285.66
2022-09-15T11:15:21.315Z,100285.88
2022-09-15T11:18:09.558Z,100300.78
2022-09-15T11:20:36.055Z,100303.69
2022-09-15T11:23:06.858Z,100295.09
2022-09-15T11:25:38.788Z,100286.06
2022-09-15T11:28:26.696Z,100290.66
2022-09-15T11:31:02.828Z,100284.81
2022-09-15T11:33:55.481Z,100296.16
2022-09-15T11:36:43.510Z,100304.19
2022-09-15T11:39:22.452Z,100305.41
2022-09-15T11:41:56.445Z,100299.69
2022-09-15T11:44:40.452Z,100308.72
2022-09-15T11:47:33.662Z,100303.84
2022-09-15T11:50:16.556Z,100303.47
2022-09-15T11:52:46.723Z,100309.19
2022-09-15T11:55:32.024Z,100318.19
2022-09-15T11:57:58.544Z,100311.53
2022-09-15T12:00:25.472Z,100303.00
2022-09-15T12:03:17.722Z,100304.22
2022-09-15T12:06:00.927Z,100304.47
2022-09-15T12:08:34.175Z,100304.63
2022-09-15T12:11:05.886Z,100303.50
2022-09-15T12:13:33.039Z,100305.00
2022-09-15T12:16:04.262Z,100297.94
2022-09-15T12:18:47.034Z,100311.28
2022-09-15T12:21:27.737Z,100307.56
2022-09-15T12:24:13.011Z,100305.25
2022-09-15T12:26:43.217Z,100311.44
2022-09-15T12:29:42.062Z,100308.28
2022-09-15T12:32:35.232Z,100307.56
2022-09-15T12:35:20.009Z,100302.94
2022-09-15T12:37:58.158Z,100299.94
2022-09-15T12:40:30.234Z,100297.81
2022-09-15T12:42:57.572Z,100313.22
2022-09-15T12:45:30.343Z,100314.56
2022-09-15T12:47:57.031Z,100312.63
2022-09-15T12:50:36.206Z,100317.41
2022-09-15T12:53:18.196Z,100299.84
2022-09-15T12:56:01.730Z,100316.38
2022-09-15T12:58:37.589Z,100312.03
2022-09-15T13:01:19.727Z,100319.28
2022-09-15T13:03:46.657Z,100315.69
2022-09-15T13:06:19.337Z,100316.13
2022-09-15T13:08:49.689Z,100318.47
2022-09-15T13:11:29.714Z,100310.69
2022-09-15T13:14:08.392Z,100305.75
2022-09-15T13:16:43.942Z,100308.28
2022-09-15T13:19:16.985Z,100312.22
2022-09-15T13:21:51.476Z,100308.97
2022-09-15T13:24:27.153Z,100308.47
2022-09-15T13:26:55.840Z,100309.47
2022-09-15T13:29:24.349Z,100303.59
2022-09-15T13:31:59.273Z,100305.59
2022-09-15T13:35:06.595Z,100300.56
2022-09-15T13:38:08.578Z,100299.69
2022-09-15T13:40:58.276Z,100305.34
2022-09-15T13:43:40.802Z,100305.34
2022-09-15T13:46:13.823Z,100306.59
2022-09-15T13:49:08.239Z,100299.28
2022-09-15T13:51:36.607Z,100300.50
2022-09-15T13:54:06.808Z,100298.09
2022-09-15T13:56:39.588Z,100295.69
2022-09-15T13:59:16.259Z,100292.81
2022-09-15T14:01:44.933Z,100292.94
2022-09-15T14:04:22.284Z,100289.44
2022-09-15T14:06:54.985Z,100289.88
2022-09-15T14:09:27.360Z,100284.84
2022-09-15T14:11:57.887Z,100289.59
2022-09-15T14:14:32.198Z,100294.56
2022-09-15T14:16:58.997Z,100292.13
2022-09-15T14:19:33.874Z,100299.00
2022-09-15T14:22:03.548Z,100296.81
2022-09-15T14:24:32.205Z,100286.84
2022-09-15T14:27:03.493Z,100291.28
2022-09-15T14:29:30.971Z,100299.09
2022-09-15T14:32:01.794Z,100287.84
2022-09-15T14:34:31.739Z,100296.50
2022-09-15T14:37:05.042Z,100297.56
2022-09-15T14:39:33.439Z,100304.94
2022-09-15T14:42:21.632Z,100309.91
2022-09-15T14:47:36.425Z,100312.50
2022-09-15T14:50:19.712Z,100332.69
2022-09-15T14:52:58.725Z,100325.31
2022-09-15T14:55:29.130Z,100324.88
2022-09-15T14:58:20.196Z,100330.66
2022-09-15T15:00:57.670Z,100333.13
2022-09-15T15:03:35.473Z,100335.59
2022-09-15T15:06:32.031Z,100339.09
2022-09-15T15:09:21.308Z,100335.38
2022-09-15T15:11:51.558Z,100336.22
2022-09-15T15:14:18.522Z,100332.50
2022-09-15T15:17:08.659Z,100336.41
2022-09-15T15:19:41.030Z,100332.72
2022-09-15T15:22:11.554Z,100336.22
2022-09-15T15:24:44.043Z,100334.16
2022-09-15T15:27:32.268Z,100326.78
2022-09-15T15:30:36.545Z,100324.91
2022-09-15T15:33:36.805Z,100329.22
2022-09-15T15:36:09.282Z,100321.81
2022-09-15T15:38:44.909Z,100330.88
2022-09-15T15:41:28.788Z,100324.06
2022-09-15T15:43:58.008Z,100321.41
2022-09-15T15:46:57.740Z,100329.44
2022-09-15T15:49:27.412Z,100335.19
2022-09-15T15:51:55.585Z,100335.59
2022-09-15T15:54:23.141Z,100324.72
2022-09-15T15:56:50.606Z,100328.00
2022-09-15T15:59:17.573Z,100321.19
2022-09-15T16:01:46.739Z,100325.34
2022-09-15T16:04:13.833Z,100330.06
2022-09-15T16:06:41.569Z,100338.09
2022-09-15T16:09:08.183Z,100327.41
2022-09-15T16:11:36.639Z,100326.97
2022-09-15T16:14:03.850Z,100333.53
2022-09-15T16:16:30.617Z,100336.22
2022-09-15T16:18:57.218Z,100329.03
2022-09-15T16:21:41.465Z,100331.28
2022-09-15T16:24:14.014Z,100332.13
2022-09-15T16:26:41.417Z,100331.31
2022-09-15T16:29:07.972Z,100334.38
2022-09-15T16:31:35.142Z,100328.22
2022-09-15T16:34:01.723Z,100326.38
2022-09-15T16:36:36.321Z,100331.06
2022-09-15T16:39:03.839Z,100326.34
2022-09-15T16:41:30.408Z,100325.94
2022-09-15T16:43:57.020Z,100333.34
2022-09-15T16:46:23.728Z,100328.41
2022-09-15T16:48:50.664Z,100337.66
2022-09-15T16:51:28.900Z,100344.22
2022-09-15T16:53:57.909Z,100341.38
2022-09-15T16:56:24.710Z,100340.13
2022-09-15T16:58:58.803Z,100330.66
2022-09-15T17:01:26.933Z,100334.97
2022-09-15T17:03:53.587Z,100334.16
2022-09-15T17:06:22.023Z,100341.34
2022-09-15T17:08:48.657Z,100356.34
2022-09-15T17:11:17.566Z,100345.06
2022-09-15T17:13:45.091Z,100348.56
2022-09-15T17:16:14.911Z,100344.41
2022-09-15T17:18:41.579Z,100337.63
2022-09-15T17:21:11.163Z,100348.94
2022-09-15T17:23:39.822Z,100347.72
2022-09-15T17:26:31.603Z,100347.06
2022-09-15T17:28:58.733Z,100352.19
2022-09-15T17:31:28.370Z,100350.34
2022-09-15T17:33:54.966Z,100349.75
2022-09-15T17:36:21.536Z,100358.81
2022-09-15T17:38:49.066Z,100357.31
2022-09-15T17:41:17.844Z,100356.09
2022-09-15T17:43:44.716Z,100351.16
2022-09-15T17:46:11.942Z,100359.97
2022-09-15T17:48:39.094Z,100353.59
2022-09-15T17:51:07.219Z,100353.16
2022-09-15T17:53:37.162Z,100361.81
2022-09-15T17:56:03.726Z,100357.06
2022-09-15T17:58:31.538Z,100356.03
2022-09-15T18:00:58.537Z,100360.56
2022-09-15T18:03:25.084Z,100359.50
2022-09-15T18:05:52.193Z,100364.88
2022-09-15T18:08:18.802Z,100363.25
2022-09-15T18:10:45.662Z,100365.75
2022-09-15T18:13:19.040Z,100370.84
2022-09-15T18:15:45.769Z,100367.16
2022-09-15T18:18:16.211Z,100379.06
2022-09-15T18:20:43.664Z,100378.41
2022-09-15T18:23:15.411Z,100380.91
2022-09-15T18:25:42.814Z,100378.63
2022-09-15T18:28:10.084Z,100384.38
2022-09-15T18:30:41.890Z,100381.69
2022-09-15T18:33:14.606Z,100386.00
2022-09-15T18:35:42.153Z,100388.66
2022-09-15T18:38:09.469Z,100390.50
2022-09-15T18:40:36.033Z,100396.06
2022-09-15T18:43:02.673Z,100400.22
2022-09-15T18:45:29.211Z,100395.44
2022-09-15T18:47:55.811Z,100403.84
2022-09-15T18:50:23.930Z,100414.75
2022-09-15T18:52:50.532Z,100404.31
2022-09-15T18:55:20.254Z,100404.72
2022-09-15T18:57:47.572Z,100403.28
2022-09-15T19:00:17.519Z,100403.28
2022-09-15T19:02:44.525Z,100407.41
2022-09-15T19:05:11.580Z,100410.06
2022-09-15T19:07:39.240Z,100400.59
2022-09-15T19:10:11.064Z,100406.56
2022-09-15T19:12:38.714Z,100408.63
2022-09-15T19:15:10.737Z,100411.28
2022-09-15T19:17:38.646Z,100414.75
2022-09-15T19:20:07.070Z,100416.63
2022-09-15T19:22:34.317Z,100409.84
2022-09-15T19:25:01.517Z,100415.97
2022-09-15T19:27:28.351Z,100411.69
2022-09-15T19:29:54.964Z,100415.13
2022-09-15T19:32:22.198Z,100424.81
2022-09-15T19:34:49.238Z,100418.19
2022-09-15T19:37:19.026Z,100417.19
2022-09-15T19:39:46.526Z,100421.47
2022-09-15T19:42:16.968Z,100426.22
2022-09-15T19:44:43.743Z,100416.97
2022-09-15T19:47:10.560Z,100418.97
2022-09-15T19:49:37.355Z,100421.44
2022-09-15T19:52:06.540Z,100431.66
2022-09-15T19:54:34.520Z,100423.00
2022-09-15T19:57:02.125Z,100427.91
2022-09-15T19:59:31.277Z,100428.84
2022-09-15T20:01:58.883Z,100435.34
2022-09-15T20:04:25.482Z,100438.59
2022-09-15T20:06:52.052Z,100432.19
2022-09-15T20:09:18.861Z,100441.25
2022-09-15T20:11:45.377Z,100446.13
2022-09-15T20:14:12.015Z,100446.75
2022-09-15T20:16:38.597Z,100446.88
2022-09-15T20:19:06.181Z,100442.97
2022-09-15T20:21:51.738Z,100451.75
2022-09-15T20:24:19.949Z,100451.13
2022-09-15T20:26:46.702Z,100444.13
2022-09-15T20:29:13.882Z,100444.16
2022-09-15T20:31:40.745Z,100456.44
2022-09-15T20:34:07.445Z,100458.91
2022-09-15T20:36:36.508Z,100453.19
2022-09-15T20:39:06.178Z,100465.63
2022-09-15T20:41:32.796Z,100462.34
2022-09-15T20:44:00.223Z,100467.00
2022-09-15T20:46:29.161Z,100470.16
2022-09-15T20:48:55.738Z,100465.63
2022-09-15T20:51:25.090Z,100470.53
2022-09-15T20:53:53.949Z,100470.53
2022-09-15T20:56:25.501Z,100475.66
2022-09-15T20:58:58.446Z,100473.44
2022-09-15T21:01:34.281Z,100476.94
2022-09-15T21:04:01.170Z,100468.69
2022-09-15T21:06:28.806Z,100474.38
2022-09-15T21:08:56.760Z,100481.00
2022-09-15T21:11:26.303Z,100477.41
2022-09-15T21:13:52.967Z,100481.91
2022-09-15T21:16:21.932Z,100468.34
2022-09-15T21:18:49.540Z,100478.75
2022-09-15T21:21:28.221Z,100471.56
2022-09-15T21:23:56.498Z,100468.91
2022-09-15T21:26:28.300Z,100479.97
2022-09-15T21:28:56.029Z,100484.97
2022-09-15T21:31:33.154Z,100491.50
2022-09-15T21:33:59.843Z,100488.00
2022-09-15T21:36:29.558Z,100489.22
2022-09-15T21:38:58.164Z,100489.91
2022-09-15T21:41:27.379Z,100485.41
2022-09-15T21:43:58.268Z,100491.38
2022-09-15T21:46:27.843Z,100487.00
2022-09-15T21:48:56.080Z,100488.47
2022-09-15T21:51:24.952Z,100481.53
2022-09-15T21:53:54.048Z,100482.31
2022-09-15T21:56:21.343Z,100487.84
2022-09-15T21:58:48.073Z,100486.19
2022-09-15T22:01:20.378Z,100487.19
2022-09-15T22:03:51.557Z,100491.63
2022-09-15T22:06:20.119Z,100487.97
2022-09-15T22:08:47.075Z,100489.72
2022-09-15T22:11:13.688Z,100488.72
2022-09-15T22:13:43.526Z,100491.19
2022-09-15T22:16:16.497Z,100492.59
2022-09-15T22:18:44.280Z,100485.59
2022-09-15T22:21:14.849Z,100491.53
2022-09-15T22:23:42.558Z,100493.91
2022-09-15T22:26:16.107Z,100499.41
2022-09-15T22:28:43.169Z,100493.66
2022-09-15T22:31:11.869Z,100489.91
2022-09-15T22:33:40.951Z,100501.22
2022-09-15T22:36:12.194Z,100494.88
2022-09-15T22:38:38.860Z,100501.94
2022-09-15T22:41:12.042Z,100496.19
2022-09-15T22:43:40.007Z,100505.19
2022-09-15T22:46:07.651Z,100497.47
2022-09-15T22:48:37.479Z,100499.16
2022-09-15T22:51:06.994Z,100504.38
2022-09-15T22:53:54.631Z,100504.78
2022-09-15T22:56:21.478Z,100509.66
2022-09-15T22:58:49.485Z,100506.63
2022-09-15T23:01:21.582Z,100502.66
2022-09-15T23:03:53.080Z,100507.81
2022-09-15T23:06:20.564Z,100506.34
2022-09-15T23:08:54.705Z,100503.03
2022-09-15T23:11:21.306Z,100507.72
2022-09-15T23:13:47.892Z,100504.50
2022-09-15T23:16:14.636Z,100507.09
2022-09-15T23:18:41.180Z,100492.06
2022-09-15T23:21:09.691Z,100493.31
2022-09-15T23:23:39.033Z,100490.28
2022-09-15T23:26:07.963Z,100484.69
2022-09-15T23:28:34.596Z,100477.44
2022-09-15T23:31:01.504Z,100478.38
2022-09-15T23:33:31.383Z,100472.59
2022-09-15T23:36:03.099Z,100471.59
2022-09-15T23:38:30.465Z,100478.66
2022-09-15T23:40:57.333Z,100485.53
2022-09-15T23:43:23.816Z,100486.47
2022-09-15T23:45:51.221Z,100484.38
2022-09-15T23:48:17.792Z,100473.72
2022-09-15T23:50:44.413Z,100477.84
2022-09-15T23:53:10.875Z,100470.69
2022-09-15T23:55:37.509Z,100473.41
2022-09-15T23:58:05.386Z,100472.44
